createdAt,value
2023-05-14T00:00:53.500Z,14.52
2023-05-14T00:01:53.614Z,14.49
2023-05-14T00:02:53.640Z,14.51
2023-05-14T00:03:53.642Z,14.52
2023-05-14T00:05:53.581Z,14.48
2023-05-14T00:06:53.516Z,14.46
2023-05-14T00:08:53.498Z,14.48
2023-05-14T00:09:53.518Z,14.49
2023-05-14T00:11:53.597Z,14.46
2023-05-14T00:12:53.534Z,14.44
2023-05-14T00:13:53.563Z,14.42
2023-05-14T00:14:53.587Z,14.38
2023-05-14T00:15:53.652Z,14.33
2023-05-14T00:16:53.577Z,14.29
2023-05-14T00:17:53.618Z,14.28
2023-05-14T00:18:53.608Z,14.24
2023-05-14T00:19:53.569Z,14.22
2023-05-14T00:20:53.550Z,14.21
2023-05-14T00:21:53.601Z,14.22
2023-05-14T00:22:53.589Z,14.24
2023-05-14T00:25:53.551Z,14.25
2023-05-14T00:26:53.570Z,14.22
2023-05-14T00:27:53.581Z,14.18
2023-05-14T00:28:53.596Z,14.16
2023-05-14T00:29:53.588Z,14.18
2023-05-14T00:31:53.719Z,14.19
2023-05-14T00:32:53.665Z,14.21
2023-05-14T00:33:53.569Z,14.20
2023-05-14T00:34:53.626Z,14.18
2023-05-14T00:35:53.586Z,14.19
2023-05-14T00:37:53.623Z,14.17
2023-05-14T00:38:53.599Z,14.18
2023-05-14T00:40:53.656Z,14.19
2023-05-14T00:41:53.630Z,14.17
2023-05-14T00:42:53.659Z,14.18
2023-05-14T00:44:53.650Z,14.17
2023-05-14T00:45:53.643Z,14.16
2023-05-14T00:48:53.690Z,14.17
2023-05-14T00:51:53.612Z,14.15
2023-05-14T00:52:53.671Z,14.14
2023-05-14T00:53:53.672Z,14.13
2023-05-14T00:55:53.710Z,14.14
2023-05-14T00:56:53.681Z,14.12
2023-05-14T00:57:53.653Z,14.13
2023-05-14T00:58:53.675Z,14.14
2023-05-14T00:59:53.663Z,14.16
2023-05-14T01:00:53.736Z,14.20
2023-05-14T01:02:53.794Z,14.19
2023-05-14T01:03:53.809Z,14.15
2023-05-14T01:04:53.679Z,14.11
2023-05-14T01:06:53.722Z,14.12
2023-05-14T01:07:53.642Z,14.14
2023-05-14T01:08:53.709Z,14.15
2023-05-14T01:11:53.695Z,14.14
2023-05-14T01:12:53.691Z,14.12
2023-05-14T01:15:53.716Z,14.15
2023-05-14T01:16:53.809Z,14.16
2023-05-14T01:18:53.740Z,14.15
2023-05-14T01:20:53.680Z,14.16
2023-05-14T01:21:53.739Z,14.17
2023-05-14T01:22:53.767Z,14.14
2023-05-14T01:23:53.713Z,14.09
2023-05-14T01:24:53.767Z,14.08
2023-05-14T01:25:53.716Z,14.07
2023-05-14T01:27:53.780Z,14.09
2023-05-14T01:28:53.748Z,14.12
2023-05-14T01:30:53.729Z,14.10
2023-05-14T01:32:53.821Z,14.09
2023-05-14T01:35:53.777Z,14.10
2023-05-14T01:36:53.788Z,14.09
2023-05-14T01:37:53.800Z,14.05
2023-05-14T01:38:53.743Z,14.06
2023-05-14T01:39:53.792Z,14.07
2023-05-14T01:40:53.774Z,14.09
2023-05-14T01:41:53.792Z,14.11
2023-05-14T01:42:53.826Z,14.13
2023-05-14T01:43:53.723Z,14.10
2023-05-14T01:44:53.790Z,14.11
2023-05-14T01:45:53.752Z,14.14
2023-05-14T01:47:53.895Z,14.13
2023-05-14T01:48:53.729Z,14.16
2023-05-14T01:52:53.821Z,14.17
2023-05-14T01:53:53.840Z,14.16
2023-05-14T01:54:53.822Z,14.18
2023-05-14T01:55:53.820Z,14.16
2023-05-14T01:56:53.760Z,14.18
2023-05-14T01:57:53.840Z,14.17
2023-05-14T01:58:53.828Z,14.19
2023-05-14T01:59:53.788Z,14.20
2023-05-14T02:00:53.829Z,14.21
2023-05-14T02:01:53.981Z,14.19
2023-05-14T02:05:53.862Z,14.17
2023-05-14T02:06:53.838Z,14.16
2023-05-14T02:07:53.873Z,14.15
2023-05-14T02:10:53.833Z,14.17
2023-05-14T02:11:53.877Z,14.15
2023-05-14T02:13:53.847Z,14.16
2023-05-14T02:14:53.888Z,14.15
2023-05-14T02:17:53.883Z,14.14
2023-05-14T02:18:53.889Z,14.15
2023-05-14T02:19:53.847Z,14.16
2023-05-14T02:21:53.869Z,14.15
2023-05-14T02:25:53.850Z,14.12
2023-05-14T02:26:53.896Z,14.11
2023-05-14T02:27:53.893Z,14.12
2023-05-14T02:30:53.846Z,14.13
2023-05-14T02:32:54.084Z,14.14
2023-05-14T02:34:53.910Z,14.12
2023-05-14T02:36:53.944Z,14.11
2023-05-14T02:39:53.953Z,14.12
2023-05-14T02:41:53.951Z,14.11
2023-05-14T02:42:53.942Z,14.09
2023-05-14T02:43:53.880Z,14.08
2023-05-14T02:44:53.922Z,14.07
2023-05-14T02:45:53.934Z,14.05
2023-05-14T02:46:53.944Z,14.03
2023-05-14T02:47:54.011Z,14.02
2023-05-14T02:48:53.954Z,14.01
2023-05-14T02:49:53.979Z,13.99
2023-05-14T02:51:53.898Z,13.97
2023-05-14T02:52:53.963Z,13.96
2023-05-14T02:53:53.906Z,13.95
2023-05-14T02:54:53.975Z,13.93
2023-05-14T02:55:53.964Z,13.92
2023-05-14T02:56:53.939Z,13.91
2023-05-14T02:59:53.970Z,13.90
2023-05-14T03:04:53.972Z,13.89
2023-05-14T03:05:53.962Z,13.91
2023-05-14T03:06:53.987Z,13.90
2023-05-14T03:07:53.977Z,13.89
2023-05-14T03:08:54.011Z,13.85
2023-05-14T03:09:54.011Z,13.84
2023-05-14T03:10:54.026Z,13.80
2023-05-14T03:12:53.970Z,13.81
2023-05-14T03:13:54.048Z,13.82
2023-05-14T03:14:54.046Z,13.84
2023-05-14T03:15:53.993Z,13.85
2023-05-14T03:16:54.045Z,13.83
2023-05-14T03:17:54.072Z,13.82
2023-05-14T03:18:54.052Z,13.76
2023-05-14T03:19:54.025Z,13.70
2023-05-14T03:20:54.046Z,13.69
2023-05-14T03:22:54.016Z,13.64
2023-05-14T03:23:54.046Z,13.62
2023-05-14T03:24:54.075Z,13.59
2023-05-14T03:25:54.045Z,13.57
2023-05-14T03:26:54.041Z,13.56
2023-05-14T03:28:54.035Z,13.57
2023-05-14T03:29:54.055Z,13.59
2023-05-14T03:31:54.059Z,13.60
2023-05-14T03:32:54.123Z,13.59
2023-05-14T03:33:54.094Z,13.60
2023-05-14T03:36:54.096Z,13.61
2023-05-14T03:37:54.059Z,13.62
2023-05-14T03:38:54.030Z,13.63
2023-05-14T03:39:54.003Z,13.62
2023-05-14T03:40:54.085Z,13.63
2023-05-14T03:42:54.080Z,13.64
2023-05-14T03:44:54.082Z,13.63
2023-05-14T03:45:54.093Z,13.62
2023-05-14T03:46:54.110Z,13.60
2023-05-14T03:51:54.092Z,13.62
2023-05-14T03:54:54.115Z,13.60
2023-05-14T03:56:54.090Z,13.62
2023-05-14T03:57:54.151Z,13.63
2023-05-14T03:58:54.109Z,13.65
2023-05-14T03:59:54.084Z,13.67
2023-05-14T04:00:54.117Z,13.66
2023-05-14T04:01:54.094Z,13.65
2023-05-14T04:04:54.251Z,13.67
2023-05-14T04:05:54.130Z,13.71
2023-05-14T04:06:54.154Z,13.68
2023-05-14T04:07:54.143Z,13.67
2023-05-14T04:08:54.177Z,13.70
2023-05-14T04:09:54.146Z,13.71
2023-05-14T04:10:54.154Z,13.72
2023-05-14T04:11:54.149Z,13.73
2023-05-14T04:12:54.178Z,13.75
2023-05-14T04:16:54.181Z,13.74
2023-05-14T04:17:54.191Z,13.73
2023-05-14T04:18:54.288Z,13.74
2023-05-14T04:20:54.176Z,13.75
2023-05-14T04:21:54.163Z,13.74
2023-05-14T04:22:54.178Z,13.72
2023-05-14T04:24:54.153Z,13.74
2023-05-14T04:25:54.238Z,13.73
2023-05-14T04:26:54.205Z,13.72
2023-05-14T04:28:54.198Z,13.73
2023-05-14T04:29:54.200Z,13.75
2023-05-14T04:30:54.199Z,13.76
2023-05-14T04:31:54.235Z,13.78
2023-05-14T04:33:54.237Z,13.79
2023-05-14T04:34:54.236Z,13.78
2023-05-14T04:35:54.158Z,13.77
2023-05-14T04:36:54.203Z,13.78
2023-05-14T04:37:54.222Z,13.80
2023-05-14T04:38:54.213Z,13.81
2023-05-14T04:39:54.508Z,13.83
2023-05-14T04:40:54.180Z,13.85
2023-05-14T04:41:54.226Z,13.86
2023-05-14T04:42:54.248Z,13.84
2023-05-14T04:43:54.221Z,13.85
2023-05-14T04:44:54.241Z,13.86
2023-05-14T04:45:54.354Z,13.87
2023-05-14T04:46:54.241Z,13.86
2023-05-14T04:47:54.316Z,13.87
2023-05-14T04:48:54.216Z,13.88
2023-05-14T04:49:54.224Z,13.91
2023-05-14T04:50:54.190Z,13.95
2023-05-14T04:51:54.253Z,13.96
2023-05-14T04:53:54.228Z,13.97
2023-05-14T04:54:54.259Z,13.98
2023-05-14T04:56:54.235Z,13.99
2023-05-14T04:57:54.281Z,14.01
2023-05-14T04:58:54.290Z,14.03
2023-05-14T04:59:54.306Z,14.06
2023-05-14T05:00:54.307Z,14.07
2023-05-14T05:02:54.325Z,14.11
2023-05-14T05:03:54.344Z,14.13
2023-05-14T05:05:54.320Z,14.16
2023-05-14T05:06:54.323Z,14.17
2023-05-14T05:07:54.324Z,14.18
2023-05-14T05:08:54.326Z,14.19
2023-05-14T05:10:54.331Z,14.22
2023-05-14T05:11:54.266Z,14.23
2023-05-14T05:13:54.323Z,14.25
2023-05-14T05:14:54.319Z,14.27
2023-05-14T05:15:54.356Z,14.28
2023-05-14T05:16:54.287Z,14.30
2023-05-14T05:17:54.297Z,14.31
2023-05-14T05:18:54.366Z,14.32
2023-05-14T05:19:54.336Z,14.34
2023-05-14T05:20:54.337Z,14.35
2023-05-14T05:21:54.344Z,14.38
2023-05-14T05:22:54.276Z,14.39
2023-05-14T05:23:54.342Z,14.41
2023-05-14T05:24:54.351Z,14.44
2023-05-14T05:25:54.327Z,14.47
2023-05-14T05:26:54.379Z,14.49
2023-05-14T05:27:54.393Z,14.50
2023-05-14T05:28:54.361Z,14.52
2023-05-14T05:29:54.365Z,14.55
2023-05-14T05:30:54.362Z,14.56
2023-05-14T05:31:54.415Z,14.57
2023-05-14T05:32:54.372Z,14.58
2023-05-14T05:33:54.376Z,14.54
2023-05-14T05:34:54.387Z,14.51
2023-05-14T05:36:54.344Z,14.50
2023-05-14T05:41:54.435Z,14.52
2023-05-14T05:43:54.328Z,14.53
2023-05-14T05:44:54.389Z,14.56
2023-05-14T05:45:54.389Z,14.57
2023-05-14T05:46:54.466Z,14.58
2023-05-14T05:48:54.394Z,14.57
2023-05-14T05:49:54.377Z,14.56
2023-05-14T05:50:54.399Z,14.55
2023-05-14T05:51:54.361Z,14.57
2023-05-14T05:52:54.421Z,14.59
2023-05-14T05:53:54.401Z,14.61
2023-05-14T05:54:54.435Z,14.62
2023-05-14T05:55:54.414Z,14.63
2023-05-14T05:58:54.468Z,14.61
2023-05-14T06:00:54.451Z,14.64
2023-05-14T06:02:54.437Z,14.65
2023-05-14T06:03:54.421Z,14.67
2023-05-14T06:04:54.474Z,14.68
2023-05-14T06:05:54.427Z,14.66
2023-05-14T06:06:54.435Z,14.65
2023-05-14T06:07:54.463Z,14.67
2023-05-14T06:08:54.434Z,14.68
2023-05-14T06:09:54.416Z,14.71
2023-05-14T06:10:54.481Z,14.74
2023-05-14T06:11:54.501Z,14.73
2023-05-14T06:12:54.497Z,14.71
2023-05-14T06:13:54.489Z,14.69
2023-05-14T06:14:54.476Z,14.70
2023-05-14T06:15:54.510Z,14.69
2023-05-14T06:16:54.566Z,14.68
2023-05-14T06:19:54.517Z,14.69
2023-05-14T06:21:54.497Z,14.70
2023-05-14T06:23:54.508Z,14.67
2023-05-14T06:24:54.509Z,14.64
2023-05-14T06:26:54.532Z,14.65
2023-05-14T06:27:54.486Z,14.66
2023-05-14T06:28:54.534Z,14.69
2023-05-14T06:29:54.512Z,14.71
2023-05-14T06:31:54.534Z,14.73
2023-05-14T06:32:54.565Z,14.74
2023-05-14T06:33:54.534Z,14.73
2023-05-14T06:34:54.530Z,14.75
2023-05-14T06:35:54.493Z,14.77
2023-05-14T06:36:54.517Z,14.78
2023-05-14T06:38:54.520Z,14.80
2023-05-14T06:39:57.019Z,14.81
2023-05-14T06:40:54.563Z,14.83
2023-05-14T06:41:54.469Z,14.86
2023-05-14T06:42:54.536Z,14.87
2023-05-14T06:43:54.526Z,14.91
2023-05-14T06:44:54.537Z,14.93
2023-05-14T06:45:54.555Z,14.94
2023-05-14T06:46:54.568Z,14.96
2023-05-14T06:47:54.642Z,14.98
2023-05-14T06:48:55.303Z,15.01
2023-05-14T06:49:54.580Z,15.03
2023-05-14T06:50:54.570Z,15.04
2023-05-14T06:51:54.503Z,15.05
2023-05-14T06:52:54.584Z,15.07
2023-05-14T06:53:54.580Z,15.09
2023-05-14T06:55:54.546Z,15.08
2023-05-14T06:56:54.533Z,15.09
2023-05-14T06:57:54.592Z,15.08
2023-05-14T06:58:54.560Z,15.07
2023-05-14T06:59:54.635Z,15.08
2023-05-14T07:00:54.596Z,15.12
2023-05-14T07:01:54.559Z,15.14
2023-05-14T07:02:54.656Z,15.15
2023-05-14T07:03:54.640Z,15.14
2023-05-14T07:04:54.544Z,15.13
2023-05-14T07:05:54.591Z,15.12
2023-05-14T07:06:54.615Z,15.11
2023-05-14T07:07:54.581Z,15.14
2023-05-14T07:09:54.568Z,15.13
2023-05-14T07:10:54.644Z,15.12
2023-05-14T07:12:54.655Z,15.10
2023-05-14T07:13:54.639Z,15.09
2023-05-14T07:15:54.636Z,15.10
2023-05-14T07:16:54.691Z,15.11
2023-05-14T07:19:54.618Z,15.13
2023-05-14T07:20:54.662Z,15.15
2023-05-14T07:21:54.641Z,15.19
2023-05-14T07:23:54.644Z,15.20
2023-05-14T07:24:54.655Z,15.22
2023-05-14T07:25:54.626Z,15.25
2023-05-14T07:26:54.632Z,15.26
2023-05-14T07:27:54.600Z,15.28
2023-05-14T07:28:54.638Z,15.30
2023-05-14T07:29:54.666Z,15.31
2023-05-14T07:30:54.675Z,15.33
2023-05-14T07:31:54.707Z,15.36
2023-05-14T07:32:54.719Z,15.40
2023-05-14T07:33:54.654Z,15.41
2023-05-14T07:34:54.692Z,15.43
2023-05-14T07:35:54.643Z,15.45
2023-05-14T07:36:54.669Z,15.47
2023-05-14T07:37:54.687Z,15.51
2023-05-14T07:38:54.699Z,15.49
2023-05-14T07:39:54.665Z,15.53
2023-05-14T07:40:54.654Z,15.60
2023-05-14T07:41:54.723Z,15.67
2023-05-14T07:42:54.700Z,15.74
2023-05-14T07:43:54.662Z,15.82
2023-05-14T07:44:54.966Z,15.89
2023-05-14T07:45:54.733Z,15.99
2023-05-14T07:46:54.748Z,16.11
2023-05-14T07:47:54.824Z,16.25
2023-05-14T07:48:54.652Z,16.39
2023-05-14T07:49:54.722Z,16.57
2023-05-14T07:50:54.666Z,16.80
2023-05-14T07:51:54.736Z,17.06
2023-05-14T07:52:54.730Z,17.28
2023-05-14T07:53:54.679Z,17.42
2023-05-14T07:54:54.727Z,17.50
2023-05-14T07:55:54.762Z,17.56
2023-05-14T07:58:54.772Z,17.54
2023-05-14T08:01:54.761Z,17.53
2023-05-14T08:02:54.955Z,17.52
2023-05-14T08:03:54.907Z,17.47
2023-05-14T08:04:54.742Z,17.37
2023-05-14T08:05:54.761Z,17.32
2023-05-14T08:06:54.697Z,17.28
2023-05-14T08:07:54.741Z,17.24
2023-05-14T08:08:54.788Z,17.22
2023-05-14T08:09:54.726Z,17.19
2023-05-14T08:10:54.792Z,17.15
2023-05-14T08:11:54.715Z,17.10
2023-05-14T08:12:54.819Z,17.05
2023-05-14T08:13:54.774Z,17.02
2023-05-14T08:14:54.742Z,17.01
2023-05-14T08:15:54.780Z,17.00
2023-05-14T08:16:54.836Z,16.97
2023-05-14T08:17:54.980Z,16.92
2023-05-14T08:18:54.902Z,16.86
2023-05-14T08:19:54.751Z,16.83
2023-05-14T08:20:54.808Z,16.80
2023-05-14T08:21:54.805Z,16.78
2023-05-14T08:22:54.748Z,16.73
2023-05-14T08:23:54.755Z,16.66
2023-05-14T08:24:54.797Z,16.59
2023-05-14T08:25:54.825Z,16.57
2023-05-14T08:27:54.772Z,16.62
2023-05-14T08:28:54.827Z,16.73
2023-05-14T08:29:54.806Z,16.83
2023-05-14T08:30:54.859Z,16.95
2023-05-14T08:31:54.787Z,17.07
2023-05-14T08:32:54.857Z,17.21
2023-05-14T08:33:54.836Z,17.33
2023-05-14T08:34:54.851Z,17.43
2023-05-14T08:35:54.786Z,17.58
2023-05-14T08:36:54.813Z,17.73
2023-05-14T08:37:54.852Z,17.89
2023-05-14T08:38:54.850Z,18.09
2023-05-14T08:39:54.815Z,18.27
2023-05-14T08:40:54.834Z,18.43
2023-05-14T08:41:54.832Z,18.58
2023-05-14T08:42:54.833Z,18.67
2023-05-14T08:43:54.854Z,18.75
2023-05-14T08:44:54.844Z,18.84
2023-05-14T08:45:54.939Z,18.90
2023-05-14T08:46:54.862Z,18.96
2023-05-14T08:47:54.937Z,19.12
2023-05-14T08:48:54.839Z,19.28
2023-05-14T08:49:54.867Z,19.47
2023-05-14T08:50:54.879Z,19.68
2023-05-14T08:51:54.867Z,19.85
2023-05-14T08:52:54.858Z,19.96
2023-05-14T08:53:54.859Z,20.07
2023-05-14T08:54:54.899Z,20.29
2023-05-14T08:55:54.865Z,20.49
2023-05-14T08:56:54.842Z,20.66
2023-05-14T08:57:54.883Z,20.95
2023-05-14T08:58:54.916Z,21.13
2023-05-14T08:59:54.864Z,21.35
2023-05-14T09:00:54.898Z,21.45
2023-05-14T09:01:54.877Z,21.48
2023-05-14T09:02:54.949Z,21.50
2023-05-14T09:03:54.921Z,21.47
2023-05-14T09:04:54.872Z,21.38
2023-05-14T09:05:54.906Z,21.34
2023-05-14T09:06:54.867Z,21.37
2023-05-14T09:07:54.934Z,21.47
2023-05-14T09:08:54.924Z,21.58
2023-05-14T09:09:54.897Z,21.51
2023-05-14T09:10:54.902Z,21.47
2023-05-14T09:11:54.865Z,21.45
2023-05-14T09:12:54.902Z,21.40
2023-05-14T09:13:54.917Z,21.35
2023-05-14T09:14:54.873Z,21.26
2023-05-14T09:15:54.988Z,21.17
2023-05-14T09:16:54.929Z,21.14
2023-05-14T09:17:55.014Z,21.10
2023-05-14T09:18:54.924Z,21.04
2023-05-14T09:19:54.910Z,20.96
2023-05-14T09:20:54.991Z,20.88
2023-05-14T09:21:54.937Z,20.82
2023-05-14T09:22:54.954Z,20.71
2023-05-14T09:23:54.953Z,20.61
2023-05-14T09:24:54.930Z,20.52
2023-05-14T09:25:54.983Z,20.41
2023-05-14T09:26:54.993Z,20.39
2023-05-14T09:27:55.691Z,20.38
2023-05-14T09:28:54.985Z,20.35
2023-05-14T09:29:54.979Z,20.31
2023-05-14T09:30:54.991Z,20.25
2023-05-14T09:31:55.034Z,20.15
2023-05-14T09:32:54.972Z,20.07
2023-05-14T09:33:54.977Z,20.03
2023-05-14T09:34:54.987Z,19.97
2023-05-14T09:35:56.428Z,19.87
2023-05-14T09:36:54.974Z,19.77
2023-05-14T09:37:54.968Z,19.76
2023-05-14T09:38:55.024Z,19.77
2023-05-14T09:39:54.959Z,19.81
2023-05-14T09:40:54.961Z,19.86
2023-05-14T09:41:54.994Z,19.89
2023-05-14T09:43:55.015Z,19.86
2023-05-14T09:44:55.014Z,19.80
2023-05-14T09:45:55.005Z,19.76
2023-05-14T09:46:55.048Z,19.67
2023-05-14T09:47:55.113Z,19.60
2023-05-14T09:48:55.013Z,19.55
2023-05-14T09:49:55.031Z,19.49
2023-05-14T09:50:54.982Z,19.44
2023-05-14T09:51:55.038Z,19.36
2023-05-14T09:52:55.030Z,19.27
2023-05-14T09:53:54.997Z,19.18
2023-05-14T09:54:55.007Z,19.07
2023-05-14T09:55:55.022Z,18.91
2023-05-14T09:56:55.722Z,18.74
2023-05-14T09:57:55.026Z,18.56
2023-05-14T09:58:55.033Z,18.48
2023-05-14T09:59:55.016Z,18.45
2023-05-14T10:00:55.072Z,18.34
2023-05-14T10:01:55.037Z,18.17
2023-05-14T10:02:55.072Z,17.96
2023-05-14T10:03:55.071Z,17.85
2023-05-14T10:04:55.065Z,17.78
2023-05-14T10:06:55.027Z,17.84
2023-05-14T10:07:55.059Z,17.91
2023-05-14T10:08:55.130Z,17.97
2023-05-14T10:10:55.072Z,17.95
2023-05-14T10:12:55.069Z,17.97
2023-05-14T10:13:55.052Z,17.94
2023-05-14T10:14:55.115Z,17.98
2023-05-14T10:15:55.097Z,18.02
2023-05-14T10:16:55.139Z,18.04
2023-05-14T10:17:55.131Z,18.08
2023-05-14T10:18:57.153Z,18.11
2023-05-14T10:19:55.076Z,18.03
2023-05-14T10:20:55.092Z,18.04
2023-05-14T10:21:55.126Z,18.10
2023-05-14T10:22:55.150Z,18.12
2023-05-14T10:23:55.105Z,18.15
2023-05-14T10:24:55.072Z,18.09
2023-05-14T10:25:55.154Z,18.05
2023-05-14T10:26:55.136Z,18.07
2023-05-14T10:27:55.148Z,18.08
2023-05-14T10:28:55.126Z,18.16
2023-05-14T10:29:55.121Z,18.20
2023-05-14T10:30:55.180Z,18.15
2023-05-14T10:33:55.158Z,18.21
2023-05-14T10:34:55.116Z,18.30
2023-05-14T10:35:55.173Z,18.36
2023-05-14T10:36:55.116Z,18.45
2023-05-14T10:37:55.091Z,18.53
2023-05-14T10:38:55.112Z,18.60
2023-05-14T10:39:55.124Z,18.73
2023-05-14T10:40:55.196Z,18.84
2023-05-14T10:41:55.152Z,18.91
2023-05-14T10:42:55.127Z,18.96
2023-05-14T10:43:55.149Z,19.01
2023-05-14T10:44:55.108Z,19.06
2023-05-14T10:46:55.180Z,19.15
2023-05-14T10:47:55.154Z,19.13
2023-05-14T10:48:55.156Z,19.04
2023-05-14T10:49:55.151Z,18.89
2023-05-14T10:50:55.224Z,18.83
2023-05-14T10:51:55.166Z,18.84
2023-05-14T10:52:55.217Z,18.90
2023-05-14T10:53:55.179Z,18.99
2023-05-14T10:54:55.193Z,19.07
2023-05-14T10:55:55.140Z,19.15
2023-05-14T10:56:55.194Z,19.06
2023-05-14T10:57:55.154Z,18.87
2023-05-14T10:58:55.173Z,18.88
2023-05-14T10:59:55.241Z,18.87
2023-05-14T11:00:55.220Z,18.91
2023-05-14T11:01:55.245Z,19.06
2023-05-14T11:02:55.251Z,19.17
2023-05-14T11:03:55.207Z,19.26
2023-05-14T11:04:55.226Z,19.30
2023-05-14T11:05:55.202Z,19.43
2023-05-14T11:06:55.226Z,19.60
2023-05-14T11:07:55.221Z,19.80
2023-05-14T11:08:55.183Z,19.98
2023-05-14T11:09:55.246Z,20.16
2023-05-14T11:10:55.238Z,20.30
2023-05-14T11:11:55.205Z,20.45
2023-05-14T11:12:55.204Z,20.56
2023-05-14T11:13:55.259Z,20.54
2023-05-14T11:14:55.283Z,20.55
2023-05-14T11:15:55.256Z,20.62
2023-05-14T11:16:55.269Z,20.73
2023-05-14T11:17:55.351Z,20.82
2023-05-14T11:18:55.312Z,20.90
2023-05-14T11:19:55.213Z,20.94
2023-05-14T11:21:55.242Z,20.85
2023-05-14T11:22:55.265Z,20.81
2023-05-14T11:23:55.267Z,20.73
2023-05-14T11:24:55.247Z,20.60
2023-05-14T11:25:55.334Z,20.47
2023-05-14T11:26:55.300Z,20.38
2023-05-14T11:27:55.286Z,20.26
2023-05-14T11:28:55.264Z,20.16
2023-05-14T11:29:55.241Z,20.07
2023-05-14T11:30:55.262Z,19.98
2023-05-14T11:31:55.315Z,19.94
2023-05-14T11:32:55.372Z,19.90
2023-05-14T11:33:55.257Z,19.89
2023-05-14T11:34:55.270Z,19.78
2023-05-14T11:35:55.281Z,19.68
2023-05-14T11:36:55.249Z,19.64
2023-05-14T11:38:55.299Z,19.66
2023-05-14T11:39:55.350Z,19.67
2023-05-14T11:40:55.306Z,19.68
2023-05-14T11:41:55.325Z,19.67
2023-05-14T11:42:55.293Z,19.65
2023-05-14T11:43:55.345Z,19.63
2023-05-14T11:44:55.332Z,19.62
2023-05-14T11:46:55.324Z,19.61
2023-05-14T11:47:55.330Z,19.58
2023-05-14T11:48:55.329Z,19.55
2023-05-14T11:49:55.356Z,19.52
2023-05-14T11:50:55.279Z,19.49
2023-05-14T11:51:55.316Z,19.44
2023-05-14T11:52:55.358Z,19.41
2023-05-14T11:53:55.336Z,19.35
2023-05-14T11:54:55.362Z,19.29
2023-05-14T11:55:55.298Z,19.27
2023-05-14T11:56:55.303Z,19.24
2023-05-14T11:57:55.326Z,19.22
2023-05-14T11:58:55.322Z,19.14
2023-05-14T11:59:55.358Z,19.08
2023-05-14T12:00:55.363Z,19.06
2023-05-14T12:01:55.328Z,19.04
2023-05-14T12:03:55.427Z,19.07
2023-05-14T12:04:55.505Z,19.11
2023-05-14T12:05:55.392Z,19.15
2023-05-14T12:06:55.345Z,19.10
2023-05-14T12:08:55.377Z,19.13
2023-05-14T12:09:55.397Z,19.20
2023-05-14T12:10:55.394Z,19.24
2023-05-14T12:11:55.358Z,19.28
2023-05-14T12:12:55.397Z,19.31
2023-05-14T12:13:55.364Z,19.24
2023-05-14T12:14:55.386Z,19.27
2023-05-14T12:15:55.457Z,19.22
2023-05-14T12:16:55.390Z,19.20
2023-05-14T12:17:55.416Z,19.18
2023-05-14T12:18:55.420Z,19.14
2023-05-14T12:19:55.402Z,19.07
2023-05-14T12:20:55.394Z,18.96
2023-05-14T12:21:55.350Z,18.83
2023-05-14T12:22:55.387Z,18.57
2023-05-14T12:23:55.396Z,18.40
2023-05-14T12:24:55.407Z,18.30
2023-05-14T12:25:55.409Z,18.19
2023-05-14T12:26:55.442Z,18.11
2023-05-14T12:27:55.401Z,18.04
2023-05-14T12:28:55.407Z,17.93
2023-05-14T12:29:55.396Z,17.82
2023-05-14T12:30:55.433Z,17.73
2023-05-14T12:31:55.472Z,17.62
2023-05-14T12:32:55.444Z,17.53
2023-05-14T12:33:55.434Z,17.49
2023-05-14T12:34:55.417Z,17.45
2023-05-14T12:35:55.434Z,17.42
2023-05-14T12:36:55.481Z,17.41
2023-05-14T12:37:55.385Z,17.39
2023-05-14T12:38:55.442Z,17.38
2023-05-14T12:40:55.441Z,17.37
2023-05-14T12:41:55.454Z,17.43
2023-05-14T12:42:56.678Z,17.48
2023-05-14T12:43:55.489Z,17.54
2023-05-14T12:44:55.478Z,17.55
2023-05-14T12:46:55.550Z,17.58
2023-05-14T12:47:55.486Z,17.60
2023-05-14T12:49:55.458Z,17.61
2023-05-14T12:50:55.457Z,17.59
2023-05-14T12:52:04.493Z,17.50
2023-05-14T12:52:55.461Z,17.44
2023-05-14T12:55:55.474Z,17.41
2023-05-14T12:56:55.501Z,17.37
2023-05-14T12:57:55.497Z,17.34
2023-05-14T12:58:55.444Z,17.29
2023-05-14T12:59:55.508Z,17.28
2023-05-14T13:02:55.561Z,17.29
2023-05-14T13:03:55.519Z,17.28
2023-05-14T13:04:55.544Z,17.26
2023-05-14T13:05:55.498Z,17.24
2023-05-14T13:06:55.501Z,17.25
2023-05-14T13:07:55.565Z,17.27
2023-05-14T13:08:55.473Z,17.30
2023-05-14T13:09:55.533Z,17.32
2023-05-14T13:10:55.526Z,17.35
2023-05-14T13:11:55.498Z,17.38
2023-05-14T13:12:55.566Z,17.32
2023-05-14T13:13:55.520Z,17.28
2023-05-14T13:14:55.528Z,17.22
2023-05-14T13:15:55.525Z,17.17
2023-05-14T13:16:55.610Z,17.18
2023-05-14T13:17:55.644Z,17.20
2023-05-14T13:18:55.601Z,17.26
2023-05-14T13:19:55.571Z,17.32
2023-05-14T13:20:55.559Z,17.39
2023-05-14T13:21:55.501Z,17.44
2023-05-14T13:22:55.579Z,17.48
2023-05-14T13:23:55.576Z,17.53
2023-05-14T13:24:55.559Z,17.59
2023-05-14T13:25:55.546Z,17.67
2023-05-14T13:26:55.544Z,17.78
2023-05-14T13:27:55.578Z,17.86
2023-05-14T13:28:55.518Z,17.95
2023-05-14T13:29:55.562Z,18.03
2023-05-14T13:30:55.560Z,18.12
2023-05-14T13:31:55.550Z,18.19
2023-05-14T13:32:55.635Z,18.25
2023-05-14T13:33:55.603Z,18.28
2023-05-14T13:34:55.589Z,18.33
2023-05-14T13:35:55.631Z,18.39
2023-05-14T13:36:55.594Z,18.45
2023-05-14T13:37:55.578Z,18.49
2023-05-14T13:38:55.554Z,18.53
2023-05-14T13:39:55.578Z,18.58
2023-05-14T13:40:55.602Z,18.61
2023-05-14T13:41:55.626Z,18.60
2023-05-14T13:44:55.563Z,18.63
2023-05-14T13:45:55.634Z,18.65
2023-05-14T13:46:55.672Z,18.68
2023-05-14T13:47:55.666Z,18.66
2023-05-14T13:48:55.642Z,18.69
2023-05-14T13:49:55.626Z,18.74
2023-05-14T13:50:55.606Z,18.80
2023-05-14T13:51:55.616Z,18.84
2023-05-14T13:52:55.606Z,18.87
2023-05-14T13:53:55.991Z,18.88
2023-05-14T13:54:55.614Z,18.87
2023-05-14T13:55:55.614Z,18.84
2023-05-14T13:56:55.630Z,18.83
2023-05-14T13:57:55.616Z,18.86
2023-05-14T13:58:55.673Z,18.94
2023-05-14T14:00:55.637Z,18.80
2023-05-14T14:01:55.702Z,18.73
2023-05-14T14:02:55.729Z,18.79
2023-05-14T14:03:55.691Z,18.90
2023-05-14T14:04:55.680Z,19.02
2023-05-14T14:05:55.676Z,19.15
2023-05-14T14:06:55.657Z,19.21
2023-05-14T14:08:01.148Z,19.26
2023-05-14T14:08:55.691Z,19.35
2023-05-14T14:09:55.695Z,19.46
2023-05-14T14:10:55.831Z,19.51
2023-05-14T14:11:55.686Z,19.56
2023-05-14T14:12:55.698Z,19.61
2023-05-14T14:13:55.704Z,19.64
2023-05-14T14:14:55.686Z,19.62
2023-05-14T14:15:55.701Z,19.57
2023-05-14T14:16:55.702Z,19.51
2023-05-14T14:17:55.701Z,19.41
2023-05-14T14:18:55.641Z,19.38
2023-05-14T14:19:55.732Z,19.36
2023-05-14T14:20:55.719Z,19.33
2023-05-14T14:21:55.657Z,19.25
2023-05-14T14:23:55.695Z,19.23
2023-05-14T14:24:55.671Z,19.25
2023-05-14T14:25:55.762Z,19.28
2023-05-14T14:26:55.676Z,19.30
2023-05-14T14:27:55.754Z,19.33
2023-05-14T14:28:55.706Z,19.32
2023-05-14T14:29:55.694Z,19.31
2023-05-14T14:30:55.735Z,19.29
2023-05-14T14:31:55.786Z,19.32
2023-05-14T14:32:55.765Z,19.35
2023-05-14T14:33:55.786Z,19.33
2023-05-14T14:34:55.724Z,19.32
2023-05-14T14:35:55.757Z,19.31
2023-05-14T14:36:55.703Z,19.34
2023-05-14T14:37:55.755Z,19.38
2023-05-14T14:38:55.753Z,19.40
2023-05-14T14:39:55.749Z,19.36
2023-05-14T14:40:55.746Z,19.33
2023-05-14T14:41:55.756Z,19.31
2023-05-14T14:42:55.776Z,19.30
2023-05-14T14:43:55.737Z,19.23
2023-05-14T14:44:55.736Z,19.16
2023-05-14T14:45:55.760Z,19.14
2023-05-14T14:46:55.785Z,19.15
2023-05-14T14:47:55.789Z,19.16
2023-05-14T14:48:55.757Z,19.17
2023-05-14T14:49:55.751Z,19.16
2023-05-14T14:50:55.803Z,19.13
2023-05-14T14:51:55.765Z,19.04
2023-05-14T14:52:55.807Z,18.92
2023-05-14T14:53:55.741Z,18.68
2023-05-14T14:54:55.783Z,18.41
2023-05-14T14:55:55.802Z,18.17
2023-05-14T14:56:55.808Z,17.90
2023-05-14T14:57:55.738Z,17.73
2023-05-14T14:58:55.802Z,17.63
2023-05-14T14:59:55.798Z,17.55
2023-05-14T15:00:55.868Z,17.47
2023-05-14T15:01:55.825Z,17.37
2023-05-14T15:02:55.835Z,17.27
2023-05-14T15:03:55.833Z,17.18
2023-05-14T15:04:55.877Z,17.07
2023-05-14T15:05:55.833Z,17.00
2023-05-14T15:06:55.853Z,16.88
2023-05-14T15:07:55.818Z,16.82
2023-05-14T15:08:55.871Z,16.80
2023-05-14T15:09:55.823Z,16.73
2023-05-14T15:10:55.795Z,16.66
2023-05-14T15:11:55.812Z,16.60
2023-05-14T15:12:55.856Z,16.40
2023-05-14T15:13:55.828Z,16.28